• Join FlightAware (Why Join?)
  • Login
  • US Flag 
08:48AM EDT


 

Airport Tracker/Info


-or-


 

Live Flight TrackerFlight Track Log ✈ JBU767 ✈ 20-Apr-2013 ✈ KMCO - TJPS / PSE

Flight Track Log - Related Links

Times and Time Zones

All times are in EDT time to prevent confusion due to time zone crossing. See the JBU767 flight status page for this flight to view local times or setup timezone preferences in your user account.

Time Position Orientation Groundspeed Altitude Reporting Facility
EDT Latitude Longitude Course Direction KTS MPH feet Rate Location/Type
11:48PM 28.4500 -81.3167 149° Southeast 150 173 700  Level Orlando TRACON
11:48PM 28.4667 -81.3000 41° Northeast 181 208 1,900 1,920 Climbing Orlando TRACON
11:49PM 28.4500 -81.2333 106° East 223 257 4,200 2,340 Climbing Orlando TRACON
11:50PM 28.4000 -81.1833 139° Southeast 276 318 6,600 2,640 Climbing Orlando TRACON
11:51PM 28.1404 -80.8324 146° Southeast  Level Estimated
11:51PM 28.3500 -81.1167 130° Southeast 292 336 9,500  Level Orlando TRACON
11:52PM 28.0679 -80.7136 152° Southeast  Level Estimated
11:52PM 28.3300 -81.0903 131° Southeast 291 335 10,400  Level Miami Center
11:53PM 27.9953 -80.5950 149° Southeast  Level Estimated
11:53PM 28.2678 -81.0100 131° Southeast 325 374 11,700  Level Miami Center
11:54PM 28.2031 -80.9369 135° Southeast 357 411 14,100 2,520 Climbing Miami Center
11:55PM 28.1303 -80.8544 135° Southeast 369 425 16,800 1,860 Climbing Miami Center
11:56PM 28.0617 -80.7742 134° Southeast 377 434 17,900 1,920 Climbing Miami Center
11:57PM 27.9767 -80.6725 133° Southeast 394 453 20,700 2,400 Climbing Miami Center
11:58PM 27.8953 -80.5853 137° Southeast 400 460 22,700 2,040 Climbing Miami Center
11:59PM 27.8164 -80.4958 135° Southeast 400 460 24,800 1,800 Climbing Miami Center
12:00AM 27.7350 -80.4042 135° Southeast 395 455 26,300 1,560 Climbing Miami Center
12:01AM 27.6558 -80.3150 135° Southeast 395 455 27,900 1,380 Climbing Miami Center
12:02AM 27.5744 -80.2233 135° Southeast 400 460 29,100 960 Climbing Miami Center
12:03AM 27.4889 -80.1297 136° Southeast 405 466 29,900 840 Climbing Miami Center
12:04AM 27.4033 -80.0336 135° Southeast 423 487 30,800 900 Climbing Miami Center
12:05AM 27.3158 -79.9331 134° Southeast 435 501 31,800 1,140 Climbing Miami Center
12:06AM 27.2242 -79.8231 133° Southeast 439 505 33,100 1,200 Climbing Miami Center
12:07AM 27.1617 -79.7119 122° Southeast 454 522 34,200 900 Climbing Miami Center
12:08AM 27.0869 -79.5817 123° Southeast 455 524 35,000 360 Climbing Miami Center
12:09AM 27.0161 -79.4589 123° Southeast 460 529 35,000  Level Miami Center
12:10AM 26.9450 -79.3361 123° Southeast 465 535 35,000  Level Miami Center
12:11AM 26.8697 -79.2111 124° Southeast 474 545 35,000  Level Miami Center
12:12AM 26.7967 -79.0861 123° Southeast 479 551 35,000  Level Miami Center
12:13AM 26.7275 -78.9639 122° Southeast 479 551 35,000  Level Miami Center
12:14AM 26.6539 -78.8417 124° Southeast 473 544 35,000  Level Miami Center
12:15AM 26.5886 -78.7222 121° Southeast 468 539 35,000  Level Miami Center
12:16AM 26.5169 -78.6094 125° Southeast 475 547 35,000  Level Miami Center
12:17AM 26.4408 -78.4925 126° Southeast 473 544 35,000  Level Miami Center
12:18AM 26.3733 -78.3639 120° Southeast 473 544 35,000  Level Miami Center
12:19AM 26.2992 -78.2517 126° Southeast 466 536 35,000  Level Miami Center
12:20AM 26.2272 -78.1236 122° Southeast 471 542 35,000  Level Miami Center
12:21AM 26.1531 -78.0000 124° Southeast 476 548 35,000  Level Miami Center
12:22AM 26.0789 -77.8789 124° Southeast 476 548 35,000  Level Miami Center
12:23AM 26.0022 -77.7558 125° Southeast 481 554 35,000  Level Miami Center
12:24AM 25.9319 -77.6283 121° Southeast 481 554 35,000  Level Miami Center
12:25AM 25.8553 -77.5075 125° Southeast 481 554 35,000  Level Miami Center
12:26AM 25.7764 -77.3711 123° Southeast 481 554 35,000  Level Miami Center
12:27AM 25.7119 -77.2647 124° Southeast 481 554 35,000  Level Miami Center
12:28AM 25.6347 -77.1400 124° Southeast 481 554 35,000  Level Miami Center
12:29AM 25.5597 -77.0178 124° Southeast 486 559 35,000 360 Level Miami Center
12:30AM 25.4825 -76.8956 125° Southeast 486 559 35,800 720 Climbing Miami Center
12:31AM 25.4053 -76.7783 126° Southeast 486 559 36,500 540 Climbing Miami Center
12:32AM 25.3278 -76.6564 125° Southeast 486 559 36,900 240 Climbing Miami Center
12:33AM 25.2461 -76.5347 127° Southeast 486 559 37,000  Climbing Miami Center
12:34AM 25.1642 -76.4133 127° Southeast 486 559 37,000  Level Miami Center
12:35AM 25.0864 -76.2944 126° Southeast 491 565 37,000  Level Miami Center
12:36AM 25.0086 -76.1753 126° Southeast 486 559 37,000  Level Miami Center
12:37AM 24.9286 -76.0544 126° Southeast 481 554 37,000  Level Miami Center
12:38AM 24.8528 -75.9381 126° Southeast 481 554 37,000  Level Miami Center
12:39AM 24.7703 -75.8175 127° Southeast 481 554 37,000  Level Miami Center
12:40AM 24.6878 -75.6947 126° Southeast 486 559 37,000  Level Miami Center
12:41AM 24.6094 -75.5719 125° Southeast 486 559 37,000  Level Miami Center
12:42AM 24.5269 -75.4517 127° Southeast 492 566 37,000  Level Miami Center
12:43AM 24.4442 -75.3294 127° Southeast 498 573 37,000  Level Miami Center
12:44AM 24.3550 -75.1958 126° Southeast 498 573 37,000  Level Miami Center
12:45AM 24.2722 -75.0739 127° Southeast 498 573 37,000  Level Miami Center
12:46AM 24.1911 -74.9544 127° Southeast 498 573 37,000  Level Miami Center
12:47AM 24.1081 -74.8306 126° Southeast 498 573 37,000  Level Miami Center
12:48AM 24.0250 -74.7089 127° Southeast 498 573 37,000  Level Miami Center
12:49AM 23.9417 -74.5900 127° Southeast 498 573 37,000  Level Miami Center
12:50AM 23.8603 -74.4711 127° Southeast 498 573 37,000  Level Miami Center
12:51AM 23.7769 -74.3500 127° Southeast 498 573 37,000  Level Miami Center
12:52AM 23.6933 -74.2314 128° Southeast 498 573 37,000  Level Miami Center
12:53AM 23.6117 -74.1106 126° Southeast 498 573 37,000  Level Miami Center
12:54AM 23.5239 -73.9881 128° Southeast 498 573 37,000  Level Miami Center
12:55AM 23.4442 -73.8719 127° Southeast 498 573 37,000  Level Miami Center
12:56AM 23.3603 -73.7517 127° Southeast 498 573 37,000  Level Miami Center
12:57AM 23.2786 -73.6361 128° Southeast 493 567 37,000  Level Miami Center
12:58AM 23.2006 -73.5161 125° Southeast 493 567 37,000  Level Miami Center
12:59AM 23.1167 -73.3986 128° Southeast 493 567 37,000  Level Miami Center
01:00AM 23.0281 -73.2814 129° Southeast 493 567 37,000  Level Miami Center
01:01AM 22.9439 -73.1619 127° Southeast 500 575 37,000  Level Miami Center
01:02AM 22.8681 -73.0492 126° Southeast 493 567 37,000  Level Miami Center
01:03AM 22.7856 -72.9278 126° Southeast 493 567 37,000  Level Miami Center
01:04AM 22.7031 -72.8111 127° Southeast 493 567 37,000  Level Miami Center
01:05AM 22.6186 -72.6967 129° Southeast 498 573 37,000  Level Miami Center
01:06AM 22.5381 -72.5781 126° Southeast 498 573 37,000  Level Miami Center
01:07AM 22.4531 -72.4572 127° Southeast 498 573 37,000  Level Miami Center
01:08AM 22.3703 -72.3389 127° Southeast 498 573 37,000  Level Miami Center
01:09AM 22.2942 -72.2361 129° Southeast 498 573 37,000  Level Miami Center
01:10AM 22.2069 -72.1203 129° Southeast 498 573 37,000  Level Miami Center
01:11AM 22.1239 -72.0000 127° Southeast 498 573 37,000  Level Miami Center
01:12AM 22.0431 -71.8844 127° Southeast 498 573 37,000  Level Miami Center
01:13AM 21.9578 -71.7692 129° Southeast 498 573 37,000  Level Miami Center
01:14AM 21.8767 -71.6558 128° Southeast 498 573 37,000  Level Miami Center
01:15AM 21.7933 -71.5408 128° Southeast 498 573 37,000  Level Miami Center
01:16AM 21.7100 -71.4258 128° Southeast 493 567 37,000  Level Miami Center
01:17AM 21.6269 -71.3131 128° Southeast 493 567 37,000  Level Miami Center
01:18AM 21.5456 -71.1983 127° Southeast 488 562 37,000  Level Miami Center
01:19AM 21.4553 -71.0731 128° Southeast 488 562 37,000  Level Miami Center
01:20AM 21.3650 -70.9522 129° Southeast 465 535 37,000  Level Miami Center
01:21AM 21.2836 -70.8400 128° Southeast 477 549 37,000  Level Miami Center
01:22AM 21.2000 -70.7283 129° Southeast 482 555 37,000  Level Miami Center
01:23AM 21.1161 -70.6142 128° Southeast 482 555 37,000  Level Miami Center
01:24AM 21.0322 -70.5003 128° Southeast 482 555 37,000  Level Miami Center
01:25AM 20.9503 -70.3844 127° Southeast 482 555 37,000  Level Miami Center
01:26AM 20.8664 -70.2731 129° Southeast 482 555 37,000  Level Miami Center
01:27AM 20.7803 -70.1575 129° Southeast 487 560 37,000  Level Miami Center
01:28AM 20.6961 -70.0422 128° Southeast 487 560 37,000  Level Miami Center
01:29AM 20.6117 -69.9269 128° Southeast 492 566 37,000  Level Miami Center
01:30AM 20.5233 -69.8119 129° Southeast 498 573 37,000  Level Miami Center
01:31AM 20.4367 -69.6950 128° Southeast 503 579 37,000  Level Miami Center
01:32AM 20.3519 -69.5778 128° Southeast 503 579 37,000  Level Miami Center
01:33AM 20.2633 -69.4611 129° Southeast 503 579 37,000  Level Miami Center
01:34AM 20.1764 -69.3444 128° Southeast 503 579 37,000  Level Miami Center
01:35AM 20.0897 -69.2281 128° Southeast 498 573 37,000  Level Miami Center
01:36AM 20.0050 -69.1158 129° Southeast 498 573 37,000  Level Miami Center
01:37AM 19.9181 -68.9997 129° Southeast 498 573 37,000  Level Miami Center
01:38AM 19.8289 -68.8839 129° Southeast 498 573 37,000  Level Miami Center
01:39AM 19.7439 -68.7656 127° Southeast 498 573 37,000  Level Miami Center
01:40AM 19.6506 -68.6547 132° Southeast 498 573 37,000  Level Miami Center
01:40AM 19.5833 -68.5833 135° Southeast 500 575 37,000  Level San Juan Center
01:41AM 19.5000 -68.4667 127° Southeast 500 575 37,000  Level San Juan Center
01:42AM 19.4167 -68.3500 127° Southeast 500 575 37,000  Level San Juan Center
01:43AM 19.3333 -68.2500 131° Southeast 490 564 37,000  Level San Juan Center
01:44AM 19.2333 -68.1333 132° Southeast 490 564 37,000 -60 Level San Juan Center
01:45AM 19.1500 -68.0167 127° Southeast 500 575 36,900 -1,020 Descending San Juan Center
01:46AM 19.0667 -67.9000 127° Southeast 500 575 35,000 -2,160 Descending San Juan Center
01:47AM 18.9667 -67.7833 132° Southeast 510 587 32,600 -2,580 Descending San Juan Center
01:48AM 18.8833 -67.6667 127° Southeast 510 587 29,800 -2,580 Descending San Juan Center
01:49AM 18.8000 -67.5500 127° Southeast 490 564 27,500 -2,400 Descending San Juan Center
01:50AM 18.7167 -67.4500 131° Southeast 460 529 25,000 -2,340 Descending San Juan Center
01:51AM 18.6333 -67.3500 131° Southeast 440 506 22,800 -2,340 Descending San Juan Center
01:52AM 18.5667 -67.2500 125° Southeast 420 483 20,400 -2,280 Descending San Juan Center
01:53AM 18.5000 -67.1667 130° Southeast 400 460 18,300 -2,100 Descending San Juan Center
01:54AM 18.4333 -67.0833 130° Southeast 370 426 16,200 -2,040 Descending San Juan Center
01:55AM 18.3667 -67.0000 130° Southeast 360 414 14,300 -1,860 Descending San Juan Center
01:57AM 18.3000 -66.9167 130° Southeast 350 403 12,500 -1,920 Descending San Juan Center
01:58AM 18.2333 -66.8500 136° Southeast 340 391 10,500 -1,860 Descending San Juan Center
01:59AM 18.1667 -66.7500 125° Southeast 310 357 8,800 -1,620 Descending San Juan Center
02:00AM 18.1333 -66.7000 125° Southeast 290 334 7,300 -900 Descending San Juan Center
02:01AM 18.0833 -66.6333 128° Southeast 280 322 7,000 -180 Descending San Juan Center
02:02AM 18.0333 -66.5667 128° Southeast 280 322 7,000 -480 Level San Juan Center
02:03AM 17.9667 -66.5167 144° Southeast 270 311 6,100 -1,320 Descending San Juan Center
02:04AM 17.9000 -66.4667 144° Southeast 270 311 4,400 -1,440 Descending San Juan Center
02:05AM 17.8667 -66.4167 125° Southeast 290 334 3,300 -900 Descending San Juan Center
02:06AM 17.9167 -66.3833 32° Northeast 180 207 2,700 -540 Descending San Juan Center
02:07AM 17.9500 -66.4333 305° West 200 230 2,300 -600 Descending San Juan Center
02:08AM 17.9667 -66.4667 298° West 150 173 1,500 -840 Descending San Juan Center